createdAt,value
2019-01-14T00:00:20.505Z,20.47
2019-01-14T00:02:49.680Z,12.07
2019-01-14T00:05:18.692Z,14.00
2019-01-14T00:07:47.756Z,12.30
2019-01-14T00:10:16.806Z,20.83
2019-01-14T00:12:45.833Z,9.77
2019-01-14T00:15:14.913Z,17.27
2019-01-14T00:17:43.941Z,18.57
2019-01-14T00:20:13.890Z,14.40
2019-01-14T00:22:43.006Z,17.67
2019-01-14T00:25:12.090Z,14.37
2019-01-14T00:27:41.137Z,15.73
2019-01-14T00:30:13.134Z,15.83
2019-01-14T00:32:42.085Z,16.00
2019-01-14T00:35:30.299Z,12.93
2019-01-14T00:37:59.346Z,13.97
2019-01-14T00:40:28.402Z,14.33
2019-01-14T00:42:57.553Z,11.40
2019-01-14T00:45:26.530Z,15.60
2019-01-14T00:47:55.570Z,18.37
2019-01-14T00:50:24.647Z,17.37
2019-01-14T00:52:53.686Z,20.27
2019-01-14T00:55:22.726Z,17.00
2019-01-14T00:57:51.698Z,17.90
2019-01-14T01:00:22.931Z,12.20
2019-01-14T01:02:51.974Z,12.67
2019-01-14T01:05:21.025Z,12.03
2019-01-14T01:07:50.072Z,11.20
2019-01-14T01:10:19.123Z,15.53
2019-01-14T01:12:48.187Z,9.93
2019-01-14T01:15:17.735Z,12.47
2019-01-14T01:17:46.776Z,13.57
2019-01-14T01:20:20.436Z,9.90
2019-01-14T01:22:49.523Z,9.60
2019-01-14T01:25:18.606Z,7.93
2019-01-14T01:27:47.722Z,14.83
2019-01-14T01:30:18.049Z,9.77
2019-01-14T01:32:47.527Z,9.57
2019-01-14T01:35:16.674Z,4.97
2019-01-14T01:37:45.777Z,11.17
2019-01-14T01:40:34.013Z,12.13
2019-01-14T01:43:03.041Z,5.50
2019-01-14T01:45:32.098Z,7.37
2019-01-14T01:48:01.149Z,8.37
2019-01-14T01:50:30.198Z,7.93
2019-01-14T01:52:59.198Z,7.93
2019-01-14T01:55:28.178Z,9.77
2019-01-14T01:58:16.380Z,5.43
2019-01-14T02:00:45.414Z,5.97
2019-01-14T02:03:14.714Z,7.80
2019-01-14T02:05:43.766Z,6.60
2019-01-14T02:08:12.846Z,11.07
2019-01-14T02:10:41.880Z,4.70
2019-01-14T02:13:10.921Z,4.00
2019-01-14T02:22:12.007Z,4.33
2019-01-14T02:24:40.974Z,8.07
2019-01-14T02:27:10.003Z,8.07
2019-01-14T02:29:39.038Z,10.23
2019-01-14T02:32:08.032Z,8.23
2019-01-14T02:34:37.079Z,6.83
2019-01-14T02:37:06.734Z,10.53
2019-01-14T02:39:35.846Z,9.00
2019-01-14T02:42:04.901Z,6.10
2019-01-14T02:44:33.945Z,4.47
2019-01-14T02:47:03.002Z,9.80
2019-01-14T02:49:32.062Z,5.83
2019-01-14T02:52:01.246Z,7.37
2019-01-14T02:54:49.391Z,7.33
2019-01-14T02:57:18.361Z,7.07
2019-01-14T02:59:47.313Z,13.77
2019-01-14T03:02:16.406Z,11.33
2019-01-14T03:04:45.460Z,11.03
2019-01-14T03:07:14.499Z,12.17
2019-01-14T03:09:43.546Z,9.90
2019-01-14T03:12:12.586Z,11.60
2019-01-14T03:14:41.537Z,11.37
2019-01-14T03:17:10.519Z,6.73
2019-01-14T03:19:39.603Z,12.47
2019-01-14T03:22:08.646Z,8.50
2019-01-14T03:24:58.037Z,5.37
2019-01-14T03:27:27.335Z,14.20
2019-01-14T03:30:16.589Z,8.87
2019-01-14T03:32:45.746Z,6.60
2019-01-14T03:35:14.809Z,6.53
2019-01-14T03:37:43.949Z,12.47
2019-01-14T03:40:14.705Z,6.20
2019-01-14T03:42:43.686Z,11.30
2019-01-14T03:45:12.825Z,6.67
2019-01-14T03:47:41.799Z,7.53
2019-01-14T03:50:19.222Z,7.50
2019-01-14T03:52:48.185Z,10.50
2019-01-14T03:55:36.408Z,10.70
2019-01-14T03:58:05.455Z,10.10
2019-01-14T04:00:34.569Z,8.90
2019-01-14T04:03:03.561Z,9.47
2019-01-14T04:05:32.522Z,11.87
2019-01-14T04:08:01.514Z,11.70
2019-01-14T04:10:30.474Z,10.33
2019-01-14T04:12:59.566Z,10.60
2019-01-14T04:15:28.643Z,6.53
2019-01-14T04:17:57.691Z,12.90
2019-01-14T04:20:26.746Z,4.73
2019-01-14T04:22:55.812Z,6.97
2019-01-14T04:25:24.775Z,8.70
2019-01-14T04:27:53.750Z,5.53
2019-01-14T04:30:24.361Z,8.50
2019-01-14T06:16:19.920Z,5.77
2019-01-14T06:18:48.933Z,3.13
2019-01-14T06:21:18.095Z,3.77
2019-01-14T06:23:47.191Z,2.30
2019-01-14T06:26:16.285Z,6.10
2019-01-14T06:28:45.262Z,3.23
2019-01-14T06:31:14.358Z,7.23
2019-01-14T06:33:43.425Z,2.60
2019-01-14T06:36:12.506Z,3.10
2019-01-14T06:38:41.629Z,4.87
2019-01-14T06:41:10.700Z,6.03
2019-01-14T06:43:39.697Z,11.37
2019-01-14T06:46:08.774Z,6.83
2019-01-14T06:48:37.877Z,10.37
2019-01-14T06:51:06.963Z,12.27
2019-01-14T06:53:36.014Z,8.60
2019-01-14T06:56:05.021Z,7.17
2019-01-14T06:58:34.003Z,18.63
2019-01-14T07:01:02.997Z,14.47
2019-01-14T07:03:32.029Z,15.70
2019-01-14T07:06:01.094Z,8.40
2019-01-14T07:08:30.138Z,11.97
2019-01-14T07:10:59.519Z,10.10
2019-01-14T07:13:28.526Z,14.90
2019-01-14T07:15:57.587Z,8.57
2019-01-14T07:18:26.695Z,8.63
2019-01-14T07:20:55.690Z,12.80
2019-01-14T07:23:24.654Z,13.93
2019-01-14T07:25:53.770Z,20.10
2019-01-14T07:28:22.834Z,11.00
2019-01-14T07:30:51.857Z,9.27
2019-01-14T07:33:20.932Z,11.83
2019-01-14T07:35:49.915Z,6.70
2019-01-14T07:38:18.970Z,9.87
2019-01-14T07:40:48.037Z,12.37
2019-01-14T07:43:17.585Z,11.47
2019-01-14T07:45:46.649Z,8.90
2019-01-14T07:48:15.685Z,8.73
2019-01-14T07:50:44.689Z,8.20
2019-01-14T07:53:13.770Z,10.37
2019-01-14T07:55:42.755Z,10.50
2019-01-14T07:58:11.824Z,7.33
2019-01-14T08:00:42.488Z,8.53
2019-01-14T08:03:11.539Z,12.43
2019-01-14T08:05:40.610Z,12.37
2019-01-14T08:08:13.907Z,9.53
2019-01-14T08:10:40.429Z,8.40
2019-01-14T08:13:10.850Z,8.73
2019-01-14T08:15:39.886Z,10.23
2019-01-14T08:18:08.905Z,7.07
2019-01-14T08:20:38.101Z,11.53
2019-01-14T08:23:07.070Z,8.37
2019-01-14T08:25:37.504Z,6.67
2019-01-14T08:28:06.682Z,9.90
2019-01-14T08:30:35.782Z,6.73
2019-01-14T08:33:04.850Z,11.27
2019-01-14T08:35:33.833Z,4.17
2019-01-14T08:38:02.953Z,4.50
2019-01-14T08:40:32.003Z,6.30
2019-01-14T08:43:01.006Z,3.13
2019-01-14T08:45:30.051Z,7.93
2019-01-14T08:47:59.074Z,6.90
2019-01-14T08:50:28.077Z,8.60
2019-01-14T08:52:57.137Z,5.43
2019-01-14T08:55:26.187Z,3.90
2019-01-14T08:57:55.154Z,7.80
2019-01-14T09:00:24.211Z,4.97
2019-01-14T09:02:53.195Z,7.83
2019-01-14T09:05:22.266Z,5.53
2019-01-14T09:07:51.257Z,5.30
2019-01-14T09:10:25.243Z,3.07
2019-01-14T09:12:54.320Z,9.43
2019-01-14T09:15:23.413Z,4.17
2019-01-14T09:17:52.470Z,1.77
2019-01-14T09:20:23.610Z,5.90
2019-01-14T09:22:52.722Z,7.40
2019-01-14T09:25:21.765Z,1.60
2019-01-14T09:27:50.830Z,2.47
2019-01-14T09:30:24.730Z,6.70
2019-01-14T09:32:53.738Z,2.10
2019-01-14T09:35:22.729Z,2.47
2019-01-14T09:37:51.824Z,2.43
2019-01-14T09:40:22.569Z,3.80
2019-01-14T09:42:51.655Z,11.20
2019-01-14T09:45:20.721Z,3.63
2019-01-14T09:47:49.774Z,5.23
2019-01-14T09:50:18.744Z,2.77
2019-01-14T09:52:47.789Z,4.70
2019-01-14T09:55:18.170Z,2.97
2019-01-14T09:57:47.366Z,4.13
2019-01-14T10:00:16.348Z,3.43
2019-01-14T10:02:45.965Z,7.73
2019-01-14T10:05:16.437Z,4.03
2019-01-14T10:07:45.546Z,4.93
2019-01-14T10:10:15.787Z,4.23
2019-01-14T10:12:44.812Z,6.67
2019-01-14T10:15:22.186Z,2.77
2019-01-14T10:17:57.777Z,3.47
2019-01-14T10:20:26.880Z,7.80
2019-01-14T10:22:55.917Z,7.23
2019-01-14T10:25:25.014Z,3.90
2019-01-14T10:27:54.097Z,5.30
2019-01-14T10:30:23.498Z,4.10
2019-01-14T10:32:52.525Z,2.23
2019-01-14T10:35:21.578Z,2.10
2019-01-14T10:37:50.674Z,8.90
2019-01-14T10:40:19.722Z,5.90
2019-01-14T10:42:48.798Z,4.53
2019-01-14T10:45:20.041Z,3.77
2019-01-14T10:47:49.033Z,2.53
2019-01-14T10:50:18.089Z,7.70
2019-01-14T10:52:47.145Z,4.53
2019-01-14T10:55:16.168Z,6.27
2019-01-14T10:57:45.130Z,5.17
2019-01-14T11:00:25.677Z,4.03
2019-01-14T11:02:54.975Z,3.00
2019-01-14T11:05:26.882Z,5.83
2019-01-14T11:07:55.867Z,4.93
2019-01-14T11:10:24.905Z,4.43
2019-01-14T11:12:53.943Z,8.27
2019-01-14T11:15:23.030Z,3.70
2019-01-14T11:17:52.107Z,4.77
2019-01-14T11:20:23.646Z,3.90
2019-01-14T11:22:52.696Z,4.20
2019-01-14T11:25:21.747Z,3.87
2019-01-14T11:27:50.761Z,10.47
2019-01-14T11:30:25.063Z,11.63
2019-01-14T11:32:54.055Z,4.43
2019-01-14T11:35:23.145Z,6.53
2019-01-14T11:37:52.218Z,4.50
2019-01-14T11:40:23.596Z,3.90
2019-01-14T11:42:52.729Z,3.67
2019-01-14T11:45:21.808Z,4.53
2019-01-14T11:47:50.864Z,8.93
2019-01-14T11:50:19.926Z,5.50
2019-01-14T11:52:48.902Z,6.57
2019-01-14T11:55:17.961Z,4.17
2019-01-14T11:57:47.019Z,1.27
2019-01-14T12:00:21.523Z,5.60
2019-01-14T12:02:50.514Z,5.57
2019-01-14T12:05:19.474Z,2.43
2019-01-14T12:07:48.477Z,1.20
2019-01-14T12:10:19.907Z,2.40
2019-01-14T12:12:48.967Z,6.13
2019-01-14T12:15:20.476Z,3.17
2019-01-14T12:17:49.565Z,1.73
2019-01-14T12:20:18.646Z,7.07
2019-01-14T12:22:47.697Z,2.97
2019-01-14T12:25:16.801Z,3.03
2019-01-14T12:27:45.881Z,1.73
2019-01-14T12:30:18.574Z,4.23
2019-01-14T12:32:47.573Z,7.93
2019-01-14T12:35:16.550Z,6.33
2019-01-14T12:37:45.510Z,3.23
2019-01-14T12:40:14.609Z,5.80
2019-01-14T12:42:43.699Z,7.17
2019-01-14T12:45:12.795Z,2.60
2019-01-14T12:47:41.915Z,4.80
2019-01-14T12:50:12.424Z,2.07
2019-01-14T12:52:41.610Z,1.77
2019-01-14T12:55:11.137Z,4.20
2019-01-14T12:57:40.266Z,6.30
2019-01-14T13:00:13.265Z,6.23
2019-01-14T13:02:42.330Z,4.20
2019-01-14T13:05:11.847Z,3.50
2019-01-14T13:08:07.979Z,4.93
2019-01-14T13:10:37.066Z,8.50
2019-01-14T13:13:06.114Z,4.63
2019-01-14T13:15:54.413Z,4.53
2019-01-14T13:18:23.392Z,9.10
2019-01-14T13:20:52.424Z,3.73
2019-01-14T13:23:21.530Z,1.43
2019-01-14T13:25:50.585Z,2.93
2019-01-14T13:28:19.678Z,3.70
2019-01-14T13:30:48.651Z,3.23
2019-01-14T13:33:17.653Z,5.73
2019-01-14T13:35:46.670Z,2.77
2019-01-14T13:38:15.743Z,1.57
2019-01-14T13:40:44.725Z,5.97
2019-01-14T13:43:13.833Z,1.33
2019-01-14T13:45:42.817Z,4.83
2019-01-14T13:48:11.920Z,1.30
2019-01-14T13:50:40.976Z,4.90
2019-01-14T13:53:12.986Z,1.73
2019-01-14T13:55:42.001Z,4.27
2019-01-14T13:58:10.939Z,2.87
2019-01-14T14:00:52.142Z,2.10
2019-01-14T14:03:21.214Z,4.63
2019-01-14T14:05:50.290Z,3.27
2019-01-14T14:08:38.521Z,4.60
2019-01-14T14:11:07.478Z,2.87
2019-01-14T14:13:36.510Z,6.37
2019-01-14T14:16:05.544Z,5.10
2019-01-14T14:18:35.633Z,5.63
2019-01-14T14:21:04.686Z,3.30
2019-01-14T14:23:33.673Z,3.87
2019-01-14T14:26:02.816Z,2.67
2019-01-14T14:28:51.054Z,3.53
2019-01-14T14:31:20.186Z,5.33
2019-01-14T14:33:49.267Z,5.40
2019-01-14T14:36:18.257Z,6.30
2019-01-14T14:38:47.371Z,7.40
2019-01-14T14:41:16.430Z,1.63
2019-01-14T14:43:45.622Z,3.27
2019-01-14T14:46:14.718Z,2.57
2019-01-14T14:48:44.002Z,6.03
2019-01-14T14:51:13.301Z,5.73
2019-01-14T14:53:42.321Z,3.77
2019-01-14T14:56:11.404Z,4.43
2019-01-14T14:58:40.502Z,6.23
2019-01-14T15:01:09.607Z,3.20
2019-01-14T15:03:38.571Z,8.13
2019-01-14T15:06:07.553Z,6.00
2019-01-14T15:08:36.650Z,3.07
2019-01-14T15:11:07.306Z,4.03
2019-01-14T15:13:36.369Z,12.20
2019-01-14T15:16:05.346Z,5.87
2019-01-14T15:18:34.301Z,4.23
2019-01-14T15:21:03.383Z,4.67
2019-01-14T15:23:32.369Z,3.17
2019-01-14T15:26:01.423Z,7.53
2019-01-14T15:28:30.549Z,8.27
2019-01-14T15:30:59.631Z,8.17
2019-01-14T15:33:28.696Z,4.30
2019-01-14T15:35:57.757Z,9.73
2019-01-14T15:38:26.765Z,6.97
2019-01-14T15:40:55.878Z,5.10
2019-01-14T15:43:24.837Z,6.60
2019-01-14T15:45:53.847Z,7.27
2019-01-14T15:48:22.930Z,10.53
2019-01-14T15:50:51.994Z,8.07
2019-01-14T15:53:20.976Z,5.63
2019-01-14T15:55:49.970Z,3.57
2019-01-14T15:58:20.180Z,3.67
2019-01-14T16:00:49.341Z,3.47
2019-01-14T16:03:18.437Z,4.17
2019-01-14T16:05:47.431Z,5.90
2019-01-14T16:08:16.410Z,7.27
2019-01-14T16:11:04.650Z,8.47
2019-01-14T16:13:45.806Z,8.77
2019-01-14T16:16:14.958Z,8.20
2019-01-14T16:18:44.022Z,6.63
2019-01-14T16:21:13.123Z,8.33
2019-01-14T16:23:42.073Z,8.53
2019-01-14T16:26:11.111Z,8.07
2019-01-14T16:28:40.203Z,11.00
2019-01-14T16:31:12.311Z,5.23
2019-01-14T16:33:41.353Z,7.47
2019-01-14T16:36:10.341Z,4.83
2019-01-14T16:38:39.382Z,5.87
2019-01-14T16:41:08.456Z,3.73
2019-01-14T16:43:37.473Z,5.07
2019-01-14T16:46:06.502Z,7.50
2019-01-14T16:48:35.610Z,5.93
2019-01-14T16:51:04.711Z,5.43
2019-01-14T16:53:34.999Z,4.63
2019-01-14T16:56:04.693Z,7.13
2019-01-14T16:58:33.774Z,4.37
2019-01-14T17:01:02.859Z,5.63
2019-01-14T17:03:31.996Z,2.27
2019-01-14T17:06:01.061Z,6.40
2019-01-14T17:08:30.141Z,6.87
2019-01-14T17:11:18.377Z,9.57
2019-01-14T17:13:47.407Z,13.07
2019-01-14T17:16:16.490Z,10.97
2019-01-14T17:18:45.465Z,5.17
2019-01-14T17:21:14.445Z,4.93
2019-01-14T17:24:02.678Z,5.13
2019-01-14T17:26:31.757Z,11.30
2019-01-14T17:29:00.758Z,8.63
2019-01-14T17:31:29.743Z,5.37
2019-01-14T17:33:58.839Z,6.60
2019-01-14T17:36:27.933Z,8.40
2019-01-14T17:38:57.330Z,6.10
2019-01-14T17:41:28.774Z,6.00
2019-01-14T17:43:58.348Z,9.63
2019-01-14T17:46:27.398Z,4.37
2019-01-14T17:48:56.541Z,9.43
2019-01-14T17:51:25.641Z,7.40
2019-01-14T17:53:54.623Z,5.70
2019-01-14T17:56:23.638Z,5.20
2019-01-14T17:58:53.667Z,5.07
2019-01-14T18:01:22.767Z,2.97
2019-01-14T18:03:51.764Z,6.30
2019-01-14T18:06:20.746Z,6.67
2019-01-14T18:08:49.757Z,4.07
2019-01-14T18:11:19.139Z,4.23
2019-01-14T18:13:48.313Z,6.97
2019-01-14T18:16:17.427Z,3.53
2019-01-14T18:18:47.289Z,6.73
2019-01-14T18:21:16.275Z,3.13
2019-01-14T18:23:45.352Z,2.37
2019-01-14T18:26:14.455Z,3.57
2019-01-14T18:28:43.562Z,5.80
2019-01-14T18:31:12.626Z,5.13
2019-01-14T18:33:43.327Z,9.07
2019-01-14T18:36:12.379Z,7.10
2019-01-14T18:38:41.473Z,5.13
2019-01-14T18:41:10.521Z,5.53
2019-01-14T18:43:39.615Z,4.17
2019-01-14T18:46:08.714Z,8.43
2019-01-14T18:48:37.732Z,8.17
2019-01-14T18:51:06.826Z,9.27
2019-01-14T18:53:35.909Z,12.00
2019-01-14T18:56:05.059Z,9.37
2019-01-14T18:58:34.109Z,11.57
2019-01-14T19:01:03.194Z,6.10
2019-01-14T19:03:32.845Z,3.67
2019-01-14T19:06:01.931Z,11.87
2019-01-14T19:08:43.154Z,7.17
2019-01-14T19:11:12.163Z,3.83
2019-01-14T19:13:41.259Z,9.57
2019-01-14T19:16:10.383Z,6.57
2019-01-14T19:18:39.493Z,6.90
2019-01-14T19:21:08.543Z,3.30
2019-01-14T19:23:37.760Z,4.10
2019-01-14T19:26:07.364Z,12.40
2019-01-14T19:28:36.504Z,4.07
2019-01-14T19:31:05.810Z,6.27
2019-01-14T19:33:38.032Z,7.57
2019-01-14T19:36:07.422Z,6.50
2019-01-14T19:38:39.603Z,5.37
2019-01-14T19:41:08.754Z,4.97
2019-01-14T19:43:37.997Z,4.90
2019-01-14T19:46:07.193Z,4.90
2019-01-14T19:48:36.410Z,4.90
2019-01-14T19:51:05.594Z,4.60
2019-01-14T19:53:35.967Z,7.60
2019-01-14T19:56:05.127Z,4.40
2019-01-14T19:58:36.482Z,3.73
2019-01-14T20:01:08.115Z,3.63
2019-01-14T20:03:37.216Z,7.00
2019-01-14T20:06:07.634Z,4.27
2019-01-14T20:08:36.818Z,7.33
2019-01-14T20:11:09.332Z,2.33
2019-01-14T20:13:38.256Z,5.00
2019-01-14T20:16:07.350Z,5.27
2019-01-14T20:18:36.433Z,4.67
2019-01-14T20:21:05.464Z,5.07
2019-01-14T20:23:34.556Z,4.17
2019-01-14T20:26:04.196Z,4.93
2019-01-14T20:28:42.493Z,6.23
2019-01-14T20:31:11.566Z,6.13
2019-01-14T20:33:40.593Z,5.20
2019-01-14T20:36:09.730Z,6.83
2019-01-14T20:38:38.850Z,6.17
2019-01-14T20:41:07.966Z,9.83
2019-01-14T20:43:37.062Z,8.30
2019-01-14T20:46:06.204Z,9.27
2019-01-14T20:48:35.281Z,6.37
2019-01-14T20:51:05.662Z,5.83
2019-01-14T20:53:34.946Z,4.40
2019-01-14T20:56:03.995Z,5.57
2019-01-14T20:58:35.065Z,9.63
2019-01-14T21:01:04.047Z,12.27
2019-01-14T21:03:33.131Z,10.90
2019-01-14T21:06:02.247Z,12.23
2019-01-14T21:08:31.326Z,13.40
2019-01-14T21:11:00.393Z,13.83
2019-01-14T21:13:29.493Z,8.90
2019-01-14T21:16:02.814Z,7.67
2019-01-14T21:18:29.496Z,7.43
2019-01-14T21:20:58.543Z,7.93
2019-01-14T21:23:27.619Z,8.20
2019-01-14T21:25:56.703Z,12.60
2019-01-14T21:28:25.705Z,8.47
2019-01-14T21:30:54.713Z,8.63
2019-01-14T21:33:23.733Z,9.23
2019-01-14T21:35:52.818Z,9.23
2019-01-14T21:38:21.890Z,8.10
2019-01-14T21:40:50.975Z,6.97
2019-01-14T21:43:20.031Z,7.63
2019-01-14T21:45:49.086Z,7.20
2019-01-14T21:48:18.154Z,5.00
2019-01-14T21:50:47.243Z,7.73
2019-01-14T21:53:16.246Z,6.30
2019-01-14T21:55:45.309Z,4.20
2019-01-14T21:58:14.298Z,4.87
2019-01-14T22:00:43.383Z,7.90
2019-01-14T22:03:12.498Z,8.60
2019-01-14T22:05:41.555Z,8.57
2019-01-14T22:08:10.598Z,7.40
2019-01-14T22:10:39.688Z,6.60
2019-01-14T22:13:08.779Z,5.00
2019-01-14T22:15:37.791Z,5.83
2019-01-14T22:18:06.801Z,6.73
2019-01-14T22:20:35.871Z,6.53
2019-01-14T22:23:04.991Z,6.57
2019-01-14T22:25:34.082Z,8.73
2019-01-14T22:28:03.085Z,9.03
2019-01-14T22:30:35.613Z,6.63
2019-01-14T22:33:04.733Z,7.10
2019-01-14T22:35:33.797Z,15.13
2019-01-14T22:38:02.780Z,7.50
2019-01-14T22:40:31.835Z,8.17
2019-01-14T22:43:00.890Z,9.30
2019-01-14T22:45:29.938Z,8.20
2019-01-14T22:47:59.004Z,6.00
2019-01-14T22:50:27.998Z,13.23
2019-01-14T22:52:57.021Z,11.50
2019-01-14T22:55:26.005Z,13.53
2019-01-14T22:57:54.998Z,13.63
2019-01-14T23:00:54.215Z,8.73
2019-01-14T23:03:23.230Z,6.70
2019-01-14T23:05:52.688Z,4.93
2019-01-14T23:08:21.951Z,6.13
2019-01-14T23:10:50.997Z,4.27
2019-01-14T23:13:20.016Z,3.93
2019-01-14T23:15:48.982Z,8.27
2019-01-14T23:18:17.942Z,6.00
2019-01-14T23:20:46.984Z,5.33
2019-01-14T23:23:16.093Z,3.90
2019-01-14T23:25:45.171Z,10.53
2019-01-14T23:28:14.226Z,6.67
2019-01-14T23:30:43.186Z,9.80
2019-01-14T23:33:12.248Z,7.73
2019-01-14T23:35:41.304Z,5.83
2019-01-14T23:38:10.450Z,6.13
2019-01-14T23:40:58.662Z,5.90
2019-01-14T23:43:27.671Z,4.70
2019-01-14T23:45:56.665Z,7.97
2019-01-14T23:48:26.806Z,6.97
2019-01-14T23:50:55.891Z,7.67
2019-01-14T23:53:24.962Z,8.23
2019-01-14T23:55:54.028Z,8.93
2019-01-14T23:58:23.086Z,6.87
